Time,TemperatureF,DewpointF,PressureIn,WindDirection,WindDirectionDegrees,WindSpeedMPH,WindSpeedGustMPH,Humidity,HourlyPrecipIn,Conditions,Clouds,dailyrainin,SoftwareType,DateUTC
2013-02-04 06:35:00,42.3,30.2,30.22,NE,36,2.7,7.6,62,0.00,,---,0.00,VWS V14.01,2013-02-04 14:35:00,
2013-02-04 06:40:00,42.6,29.7,30.22,NE,40,5.4,5.4,60,0.00,,---,0.00,VWS V14.01,2013-02-04 14:40:00,
2013-02-04 06:45:00,42.6,29.3,30.22,NE,45,5.4,6.3,59,0.00,,---,0.00,VWS V14.01,2013-02-04 14:45:00,
2013-02-04 06:50:00,42.8,29.5,30.22,NE,42,4.9,5.8,59,0.00,,---,0.00,VWS V14.01,2013-02-04 14:50:00,
2013-02-04 06:55:00,43.0,29.6,30.22,NNE,21,6.3,6.3,59,0.00,,---,0.00,VWS V14.01,2013-02-04 14:55:00,
2013-02-04 07:00:00,43.2,29.8,30.22,NE,50,4.0,6.3,59,0.00,,---,0.00,VWS V14.01,2013-02-04 15:00:00,
2013-02-04 07:05:00,43.5,30.2,30.22,NE,44,6.3,6.3,59,0.00,,---,0.00,VWS V14.01,2013-02-04 15:05:00,
2013-02-04 07:10:00,43.9,29.6,30.22,NE,54,3.1,6.3,57,0.00,,---,0.00,VWS V14.01,2013-02-04 15:10:00,
2013-02-04 07:15:00,44.4,29.7,30.22,NNE,31,6.3,6.3,56,0.00,,---,0.00,VWS V14.01,2013-02-04 15:15:00,
2013-02-04 07:20:00,45.0,29.8,30.22,ENE,73,5.4,6.3,55,0.00,,---,0.00,VWS V14.01,2013-02-04 15:20:00,
2013-02-04 07:25:00,45.1,30.0,30.22,NNE,25,6.3,7.6,55,0.00,,---,0.00,VWS V14.01,2013-02-04 15:25:00,
2013-02-04 07:35:00,42.3,30.2,30.22,NE,36,2.7,7.6,62,0.00,,---,0.00,VWS V14.01,2013-02-04 15:35:00,
2013-02-04 07:40:00,42.6,29.7,30.22,NE,40,5.4,5.4,60,0.00,,---,0.00,VWS V14.01,2013-02-04 15:40:00,
2013-02-04 07:45:00,42.6,29.3,30.22,NE,45,5.4,6.3,59,0.00,,---,0.00,VWS V14.01,2013-02-04 15:45:00,
2013-02-04 07:50:00,42.8,29.5,30.22,NE,42,4.9,5.8,59,0.00,,---,0.00,VWS V14.01,2013-02-04 15:50:00,
2013-02-04 07:55:00,43.0,29.6,30.22,NNE,21,6.3,6.3,59,0.00,,---,0.00,VWS V14.01,2013-02-04 15:55:00,
2013-02-04 08:00:00,43.2,29.8,30.22,NE,50,4.0,6.3,59,0.00,,---,0.00,VWS V14.01,2013-02-04 16:00:00,
2013-02-04 08:05:00,43.5,30.2,30.22,NE,44,6.3,6.3,59,0.00,,---,0.00,VWS V14.01,2013-02-04 16:05:00,
2013-02-04 08:10:00,43.9,29.6,30.22,NE,54,3.1,6.3,57,0.00,,---,0.00,VWS V14.01,2013-02-04 16:10:00,
2013-02-04 08:15:00,44.4,29.7,30.22,NNE,31,6.3,6.3,56,0.00,,---,0.00,VWS V14.01,2013-02-04 16:15:00,
2013-02-04 08:20:00,45.0,29.8,30.22,ENE,73,5.4,6.3,55,0.00,,---,0.00,VWS V14.01,2013-02-04 16:20:00,
2013-02-04 08:25:00,45.1,30.0,30.22,NNE,25,6.3,7.6,55,0.00,,---,0.00,VWS V14.01,2013-02-04 16:25:00,